sensor_id;sensor_type;location;lat;lon;timestamp;P1;durP1;ratioP1;P2;durP2;ratioP2
74487;SDS011;63019;51.080;13.642;2023-03-14T00:00:11;1.50;;;0.50;;
74487;SDS011;63019;51.080;13.642;2023-03-14T00:01:16;0.70;;;0.40;;
74487;SDS011;63019;51.080;13.642;2023-03-14T00:02:21;1.38;;;0.40;;
74487;SDS011;63019;51.080;13.642;2023-03-14T00:03:24;0.75;;;0.50;;
74487;SDS011;63019;51.080;13.642;2023-03-14T00:04:25;0.47;;;0.30;;
74487;SDS011;63019;51.080;13.642;2023-03-14T00:05:29;0.45;;;0.30;;
74487;SDS011;63019;51.080;13.642;2023-03-14T00:06:31;1.15;;;0.38;;
74487;SDS011;63019;51.080;13.642;2023-03-14T00:07:35;0.70;;;0.30;;
74487;SDS011;63019;51.080;13.642;2023-03-14T00:08:38;1.00;;;0.30;;
74487;SDS011;63019;51.080;13.642;2023-03-14T00:09:41;2.85;;;0.30;;
74487;SDS011;63019;51.080;13.642;2023-03-14T00:10:43;0.43;;;0.40;;
74487;SDS011;63019;51.080;13.642;2023-03-14T00:11:45;1.67;;;0.30;;
74487;SDS011;63019;51.080;13.642;2023-03-14T00:12:47;1.67;;;0.35;;
74487;SDS011;63019;51.080;13.642;2023-03-14T00:13:50;1.98;;;0.30;;
74487;SDS011;63019;51.080;13.642;2023-03-14T00:14:52;0.70;;;0.25;;
74487;SDS011;63019;51.080;13.642;2023-03-14T00:15:54;0.43;;;0.30;;
74487;SDS011;63019;51.080;13.642;2023-03-14T00:16:56;0.77;;;0.38;;
74487;SDS011;63019;51.080;13.642;2023-03-14T00:17:58;1.30;;;0.50;;
74487;SDS011;63019;51.080;13.642;2023-03-14T00:18:59;1.60;;;0.40;;
74487;SDS011;63019;51.080;13.642;2023-03-14T00:20:03;1.85;;;0.30;;
74487;SDS011;63019;51.080;13.642;2023-03-14T00:21:10;0.77;;;0.30;;
74487;SDS011;63019;51.080;13.642;2023-03-14T00:22:12;0.57;;;0.28;;
74487;SDS011;63019;51.080;13.642;2023-03-14T00:23:14;2.17;;;0.50;;
74487;SDS011;63019;51.080;13.642;2023-03-14T00:24:17;0.90;;;0.30;;
74487;SDS011;63019;51.080;13.642;2023-03-14T00:25:18;1.42;;;0.50;;
74487;SDS011;63019;51.080;13.642;2023-03-14T00:26:20;0.75;;;0.32;;
74487;SDS011;63019;51.080;13.642;2023-03-14T00:27:22;2.20;;;0.40;;
74487;SDS011;63019;51.080;13.642;2023-03-14T00:28:24;2.42;;;0.60;;
74487;SDS011;63019;51.080;13.642;2023-03-14T00:29:26;2.97;;;0.70;;
74487;SDS011;63019;51.080;13.642;2023-03-14T00:30:28;2.95;;;0.60;;
74487;SDS011;63019;51.080;13.642;2023-03-14T00:31:30;1.15;;;0.40;;
74487;SDS011;63019;51.080;13.642;2023-03-14T00:32:31;1.45;;;0.60;;
74487;SDS011;63019;51.080;13.642;2023-03-14T00:33:33;2.90;;;0.68;;
74487;SDS011;63019;51.080;13.642;2023-03-14T00:34:35;1.90;;;0.70;;
74487;SDS011;63019;51.080;13.642;2023-03-14T00:35:37;1.10;;;0.63;;
74487;SDS011;63019;51.080;13.642;2023-03-14T00:36:39;1.55;;;0.68;;
74487;SDS011;63019;51.080;13.642;2023-03-14T00:37:41;1.90;;;0.55;;
74487;SDS011;63019;51.080;13.642;2023-03-14T00:38:44;2.30;;;0.60;;
74487;SDS011;63019;51.080;13.642;2023-03-14T00:39:47;2.07;;;0.67;;
74487;SDS011;63019;51.080;13.642;2023-03-14T00:40:49;1.15;;;0.43;;
74487;SDS011;63019;51.080;13.642;2023-03-14T00:41:51;2.45;;;0.60;;
74487;SDS011;63019;51.080;13.642;2023-03-14T00:42:53;1.73;;;0.63;;
74487;SDS011;63019;51.080;13.642;2023-03-14T00:43:55;2.97;;;0.93;;
74487;SDS011;63019;51.080;13.642;2023-03-14T00:44:57;1.42;;;0.65;;
74487;SDS011;63019;51.080;13.642;2023-03-14T00:45:58;2.72;;;0.88;;
74487;SDS011;63019;51.080;13.642;2023-03-14T00:47:00;2.90;;;0.60;;
74487;SDS011;63019;51.080;13.642;2023-03-14T00:48:02;3.40;;;1.13;;
74487;SDS011;63019;51.080;13.642;2023-03-14T00:49:04;2.20;;;0.82;;
74487;SDS011;63019;51.080;13.642;2023-03-14T00:50:06;2.63;;;0.77;;
74487;SDS011;63019;51.080;13.642;2023-03-14T00:51:08;2.03;;;0.80;;
74487;SDS011;63019;51.080;13.642;2023-03-14T00:52:12;2.67;;;0.70;;
74487;SDS011;63019;51.080;13.642;2023-03-14T00:53:14;3.65;;;0.80;;
74487;SDS011;63019;51.080;13.642;2023-03-14T00:54:16;3.88;;;0.82;;
74487;SDS011;63019;51.080;13.642;2023-03-14T00:55:18;1.75;;;0.95;;
74487;SDS011;63019;51.080;13.642;2023-03-14T00:56:20;3.72;;;0.80;;
74487;SDS011;63019;51.080;13.642;2023-03-14T00:57:22;1.88;;;0.85;;
74487;SDS011;63019;51.080;13.642;2023-03-14T00:58:23;1.95;;;0.70;;
74487;SDS011;63019;51.080;13.642;2023-03-14T00:59:25;4.10;;;0.70;;
74487;SDS011;63019;51.080;13.642;2023-03-14T01:00:27;2.23;;;0.93;;
74487;SDS011;63019;51.080;13.642;2023-03-14T01:01:29;2.65;;;0.90;;
74487;SDS011;63019;51.080;13.642;2023-03-14T01:02:31;3.38;;;1.00;;
74487;SDS011;63019;51.080;13.642;2023-03-14T01:03:33;3.50;;;0.82;;
74487;SDS011;63019;51.080;13.642;2023-03-14T01:04:35;2.83;;;0.90;;
74487;SDS011;63019;51.080;13.642;2023-03-14T01:05:39;1.70;;;0.82;;
74487;SDS011;63019;51.080;13.642;2023-03-14T01:06:41;2.10;;;0.75;;
74487;SDS011;63019;51.080;13.642;2023-03-14T01:07:43;4.13;;;1.05;;
74487;SDS011;63019;51.080;13.642;2023-03-14T01:08:45;1.58;;;0.82;;
74487;SDS011;63019;51.080;13.642;2023-03-14T01:09:47;2.55;;;0.88;;
74487;SDS011;63019;51.080;13.642;2023-03-14T01:10:52;1.47;;;0.80;;
74487;SDS011;63019;51.080;13.642;2023-03-14T01:11:53;2.58;;;1.00;;
74487;SDS011;63019;51.080;13.642;2023-03-14T01:12:55;2.08;;;0.95;;
74487;SDS011;63019;51.080;13.642;2023-03-14T01:13:57;2.45;;;1.05;;
74487;SDS011;63019;51.080;13.642;2023-03-14T01:14:59;4.82;;;0.60;;
74487;SDS011;63019;51.080;13.642;2023-03-14T01:16:02;4.35;;;1.00;;
74487;SDS011;63019;51.080;13.642;2023-03-14T01:17:06;2.95;;;0.90;;
74487;SDS011;63019;51.080;13.642;2023-03-14T01:18:08;2.78;;;0.98;;
74487;SDS011;63019;51.080;13.642;2023-03-14T01:19:10;1.52;;;0.80;;
74487;SDS011;63019;51.080;13.642;2023-03-14T01:20:12;1.50;;;0.80;;
74487;SDS011;63019;51.080;13.642;2023-03-14T01:21:20;3.57;;;0.90;;
74487;SDS011;63019;51.080;13.642;2023-03-14T01:22:24;4.38;;;1.20;;
74487;SDS011;63019;51.080;13.642;2023-03-14T01:23:26;2.33;;;0.90;;
74487;SDS011;63019;51.080;13.642;2023-03-14T01:24:27;1.13;;;0.80;;
74487;SDS011;63019;51.080;13.642;2023-03-14T01:25:29;3.30;;;0.95;;
74487;SDS011;63019;51.080;13.642;2023-03-14T01:26:32;2.55;;;1.00;;
74487;SDS011;63019;51.080;13.642;2023-03-14T01:27:35;1.10;;;0.80;;
74487;SDS011;63019;51.080;13.642;2023-03-14T01:28:37;5.97;;;0.98;;
74487;SDS011;63019;51.080;13.642;2023-03-14T01:29:39;1.02;;;0.73;;
74487;SDS011;63019;51.080;13.642;2023-03-14T01:30:41;1.10;;;0.68;;
74487;SDS011;63019;51.080;13.642;2023-03-14T01:31:43;1.47;;;0.60;;
74487;SDS011;63019;51.080;13.642;2023-03-14T01:32:45;1.27;;;0.70;;
74487;SDS011;63019;51.080;13.642;2023-03-14T01:33:47;2.05;;;0.60;;
74487;SDS011;63019;51.080;13.642;2023-03-14T01:34:49;2.55;;;0.68;;
74487;SDS011;63019;51.080;13.642;2023-03-14T01:35:51;1.23;;;0.65;;
74487;SDS011;63019;51.080;13.642;2023-03-14T01:36:52;2.38;;;0.60;;
74487;SDS011;63019;51.080;13.642;2023-03-14T01:37:54;2.25;;;0.70;;
74487;SDS011;63019;51.080;13.642;2023-03-14T01:38:56;1.00;;;0.60;;
74487;SDS011;63019;51.080;13.642;2023-03-14T01:39:58;0.77;;;0.57;;
74487;SDS011;63019;51.080;13.642;2023-03-14T01:41:00;0.95;;;0.50;;
74487;SDS011;63019;51.080;13.642;2023-03-14T01:42:02;2.70;;;0.60;;
74487;SDS011;63019;51.080;13.642;2023-03-14T01:43:06;1.75;;;0.40;;
74487;SDS011;63019;51.080;13.642;2023-03-14T01:44:13;1.00;;;0.50;;
74487;SDS011;63019;51.080;13.642;2023-03-14T01:46:54;0.50;;;0.40;;
74487;SDS011;63019;51.080;13.642;2023-03-14T01:47:56;1.05;;;0.60;;
74487;SDS011;63019;51.080;13.642;2023-03-14T01:50:12;0.85;;;0.40;;
74487;SDS011;63019;51.080;13.642;2023-03-14T01:51:16;1.60;;;0.73;;
74487;SDS011;63019;51.080;13.642;2023-03-14T01:52:39;1.55;;;0.47;;
74487;SDS011;63019;51.080;13.642;2023-03-14T01:53:48;1.33;;;0.40;;
74487;SDS011;63019;51.080;13.642;2023-03-14T01:54:59;2.45;;;0.50;;
74487;SDS011;63019;51.080;13.642;2023-03-14T01:56:10;1.27;;;0.60;;
74487;SDS011;63019;51.080;13.642;2023-03-14T01:57:49;1.73;;;0.50;;
74487;SDS011;63019;51.080;13.642;2023-03-14T01:58:47;0.93;;;0.52;;
74487;SDS011;63019;51.080;13.642;2023-03-14T02:00:04;0.70;;;0.40;;
74487;SDS011;63019;51.080;13.642;2023-03-14T02:04:25;0.70;;;0.40;;
74487;SDS011;63019;51.080;13.642;2023-03-14T02:05:32;1.20;;;0.40;;
74487;SDS011;63019;51.080;13.642;2023-03-14T02:07:58;1.80;;;0.20;;
74487;SDS011;63019;51.080;13.642;2023-03-14T02:09:01;1.02;;;0.40;;
74487;SDS011;63019;51.080;13.642;2023-03-14T02:10:05;3.50;;;0.73;;
74487;SDS011;63019;51.080;13.642;2023-03-14T02:11:07;0.50;;;0.40;;
74487;SDS011;63019;51.080;13.642;2023-03-14T02:12:09;1.30;;;0.35;;
74487;SDS011;63019;51.080;13.642;2023-03-14T02:13:16;0.60;;;0.30;;
74487;SDS011;63019;51.080;13.642;2023-03-14T02:14:28;1.38;;;0.35;;
74487;SDS011;63019;51.080;13.642;2023-03-14T02:15:33;4.13;;;1.05;;
74487;SDS011;63019;51.080;13.642;2023-03-14T02:16:35;0.30;;;0.30;;
74487;SDS011;63019;51.080;13.642;2023-03-14T02:17:37;1.83;;;0.30;;
74487;SDS011;63019;51.080;13.642;2023-03-14T02:18:41;0.50;;;0.27;;
74487;SDS011;63019;51.080;13.642;2023-03-14T02:19:47;0.30;;;0.20;;
74487;SDS011;63019;51.080;13.642;2023-03-14T02:21:18;0.30;;;0.20;;
74487;SDS011;63019;51.080;13.642;2023-03-14T02:22:28;0.20;;;0.20;;
74487;SDS011;63019;51.080;13.642;2023-03-14T02:24:34;1.02;;;0.30;;
74487;SDS011;63019;51.080;13.642;2023-03-14T02:25:43;0.43;;;0.20;;
74487;SDS011;63019;51.080;13.642;2023-03-14T02:27:07;0.15;;;0.10;;
74487;SDS011;63019;51.080;13.642;2023-03-14T02:28:12;0.22;;;0.10;;
74487;SDS011;63019;51.080;13.642;2023-03-14T02:29:15;0.82;;;0.20;;
74487;SDS011;63019;51.080;13.642;2023-03-14T02:31:20;1.45;;;0.30;;
74487;SDS011;63019;51.080;13.642;2023-03-14T02:32:24;1.45;;;0.20;;
74487;SDS011;63019;51.080;13.642;2023-03-14T02:33:27;1.25;;;0.20;;
74487;SDS011;63019;51.080;13.642;2023-03-14T02:34:29;0.30;;;0.10;;
74487;SDS011;63019;51.080;13.642;2023-03-14T02:35:40;0.17;;;0.10;;
74487;SDS011;63019;51.080;13.642;2023-03-14T02:36:48;0.10;;;0.10;;
74487;SDS011;63019;51.080;13.642;2023-03-14T02:37:52;0.90;;;0.10;;
74487;SDS011;63019;51.080;13.642;2023-03-14T02:38:56;0.20;;;0.10;;
74487;SDS011;63019;51.080;13.642;2023-03-14T02:40:02;0.40;;;0.20;;
74487;SDS011;63019;51.080;13.642;2023-03-14T02:41:05;0.10;;;0.07;;
74487;SDS011;63019;51.080;13.642;2023-03-14T02:42:07;0.05;;;0.05;;
74487;SDS011;63019;51.080;13.642;2023-03-14T02:43:09;0.00;;;0.00;;
74487;SDS011;63019;51.080;13.642;2023-03-14T02:44:11;0.22;;;0.08;;
74487;SDS011;63019;51.080;13.642;2023-03-14T02:46:18;0.00;;;0.00;;
74487;SDS011;63019;51.080;13.642;2023-03-14T02:47:25;0.40;;;0.10;;
74487;SDS011;63019;51.080;13.642;2023-03-14T02:48:31;0.17;;;0.03;;
74487;SDS011;63019;51.080;13.642;2023-03-14T02:49:40;0.00;;;0.00;;
74487;SDS011;63019;51.080;13.642;2023-03-14T02:50:43;0.22;;;0.08;;
74487;SDS011;63019;51.080;13.642;2023-03-14T02:51:47;0.10;;;0.10;;
74487;SDS011;63019;51.080;13.642;2023-03-14T02:52:49;0.28;;;0.10;;
74487;SDS011;63019;51.080;13.642;2023-03-14T02:53:51;0.35;;;0.20;;
74487;SDS011;63019;51.080;13.642;2023-03-14T02:54:52;0.20;;;0.10;;
74487;SDS011;63019;51.080;13.642;2023-03-14T02:55:54;2.83;;;0.10;;
74487;SDS011;63019;51.080;13.642;2023-03-14T02:56:56;0.25;;;0.10;;
74487;SDS011;63019;51.080;13.642;2023-03-14T02:57:58;0.73;;;0.10;;
74487;SDS011;63019;51.080;13.642;2023-03-14T02:59:02;0.03;;;0.00;;
74487;SDS011;63019;51.080;13.642;2023-03-14T03:00:04;0.43;;;0.10;;
74487;SDS011;63019;51.080;13.642;2023-03-14T03:01:07;0.10;;;0.10;;
74487;SDS011;63019;51.080;13.642;2023-03-14T03:02:09;0.10;;;0.10;;
74487;SDS011;63019;51.080;13.642;2023-03-14T03:03:11;0.10;;;0.00;;
74487;SDS011;63019;51.080;13.642;2023-03-14T03:04:13;0.10;;;0.08;;
74487;SDS011;63019;51.080;13.642;2023-03-14T03:05:15;0.00;;;0.00;;
74487;SDS011;63019;51.080;13.642;2023-03-14T03:06:17;0.20;;;0.08;;
74487;SDS011;63019;51.080;13.642;2023-03-14T03:07:19;0.55;;;0.10;;
74487;SDS011;63019;51.080;13.642;2023-03-14T03:08:22;0.00;;;0.00;;
74487;SDS011;63019;51.080;13.642;2023-03-14T03:09:26;0.20;;;0.00;;
74487;SDS011;63019;51.080;13.642;2023-03-14T03:10:28;0.13;;;0.03;;
74487;SDS011;63019;51.080;13.642;2023-03-14T03:11:30;0.00;;;0.00;;
74487;SDS011;63019;51.080;13.642;2023-03-14T03:12:32;0.17;;;0.10;;
74487;SDS011;63019;51.080;13.642;2023-03-14T03:13:34;0.00;;;0.00;;
74487;SDS011;63019;51.080;13.642;2023-03-14T03:14:36;0.00;;;0.00;;
74487;SDS011;63019;51.080;13.642;2023-03-14T03:15:38;0.00;;;0.00;;
74487;SDS011;63019;51.080;13.642;2023-03-14T03:16:41;0.22;;;0.10;;
74487;SDS011;63019;51.080;13.642;2023-03-14T03:17:43;0.10;;;0.00;;
74487;SDS011;63019;51.080;13.642;2023-03-14T03:18:45;0.80;;;0.10;;
74487;SDS011;63019;51.080;13.642;2023-03-14T03:19:47;0.28;;;0.10;;
74487;SDS011;63019;51.080;13.642;2023-03-14T03:20:48;0.00;;;0.00;;
74487;SDS011;63019;51.080;13.642;2023-03-14T03:21:50;0.17;;;0.10;;
74487;SDS011;63019;51.080;13.642;2023-03-14T03:22:52;0.27;;;0.07;;
74487;SDS011;63019;51.080;13.642;2023-03-14T03:23:54;0.00;;;0.00;;
74487;SDS011;63019;51.080;13.642;2023-03-14T03:24:56;1.45;;;0.20;;
74487;SDS011;63019;51.080;13.642;2023-03-14T03:25:57;0.40;;;0.10;;
74487;SDS011;63019;51.080;13.642;2023-03-14T03:26:59;0.30;;;0.20;;
74487;SDS011;63019;51.080;13.642;2023-03-14T03:28:01;0.10;;;0.10;;
74487;SDS011;63019;51.080;13.642;2023-03-14T03:29:03;1.08;;;0.30;;
74487;SDS011;63019;51.080;13.642;2023-03-14T03:30:05;9.32;;;2.25;;
74487;SDS011;63019;51.080;13.642;2023-03-14T03:31:09;11.70;;;2.40;;
74487;SDS011;63019;51.080;13.642;2023-03-14T03:32:11;9.35;;;1.70;;
74487;SDS011;63019;51.080;13.642;2023-03-14T03:33:13;1.63;;;0.30;;
74487;SDS011;63019;51.080;13.642;2023-03-14T03:34:15;3.38;;;0.90;;
74487;SDS011;63019;51.080;13.642;2023-03-14T03:35:17;3.72;;;1.00;;
74487;SDS011;63019;51.080;13.642;2023-03-14T03:36:23;2.85;;;0.50;;
74487;SDS011;63019;51.080;13.642;2023-03-14T03:37:26;0.90;;;0.22;;
74487;SDS011;63019;51.080;13.642;2023-03-14T03:38:27;0.75;;;0.20;;
74487;SDS011;63019;51.080;13.642;2023-03-14T03:39:29;0.20;;;0.10;;
74487;SDS011;63019;51.080;13.642;2023-03-14T03:40:31;1.45;;;0.10;;
74487;SDS011;63019;51.080;13.642;2023-03-14T03:41:33;0.73;;;0.20;;
74487;SDS011;63019;51.080;13.642;2023-03-14T03:42:35;0.20;;;0.08;;
74487;SDS011;63019;51.080;13.642;2023-03-14T03:43:37;0.10;;;0.10;;
74487;SDS011;63019;51.080;13.642;2023-03-14T03:44:39;0.00;;;0.00;;
74487;SDS011;63019;51.080;13.642;2023-03-14T03:45:41;2.35;;;0.10;;
74487;SDS011;63019;51.080;13.642;2023-03-14T03:46:43;0.38;;;0.10;;
74487;SDS011;63019;51.080;13.642;2023-03-14T03:47:45;0.00;;;0.00;;
74487;SDS011;63019;51.080;13.642;2023-03-14T03:48:47;1.02;;;0.10;;
74487;SDS011;63019;51.080;13.642;2023-03-14T03:49:49;0.10;;;0.00;;
74487;SDS011;63019;51.080;13.642;2023-03-14T03:50:50;0.20;;;0.03;;
74487;SDS011;63019;51.080;13.642;2023-03-14T03:51:52;0.80;;;0.10;;
74487;SDS011;63019;51.080;13.642;2023-03-14T03:52:54;0.52;;;0.10;;
74487;SDS011;63019;51.080;13.642;2023-03-14T03:53:56;0.00;;;0.00;;
74487;SDS011;63019;51.080;13.642;2023-03-14T03:54:58;0.15;;;0.10;;
74487;SDS011;63019;51.080;13.642;2023-03-14T03:56:00;0.43;;;0.00;;
74487;SDS011;63019;51.080;13.642;2023-03-14T03:57:03;0.13;;;0.10;;
74487;SDS011;63019;51.080;13.642;2023-03-14T03:58:05;0.00;;;0.00;;
74487;SDS011;63019;51.080;13.642;2023-03-14T03:59:07;1.35;;;0.10;;
74487;SDS011;63019;51.080;13.642;2023-03-14T04:00:09;0.70;;;0.10;;
74487;SDS011;63019;51.080;13.642;2023-03-14T04:01:13;1.17;;;0.25;;
74487;SDS011;63019;51.080;13.642;2023-03-14T04:02:15;1.05;;;0.10;;
74487;SDS011;63019;51.080;13.642;2023-03-14T04:03:17;0.88;;;0.55;;
74487;SDS011;63019;51.080;13.642;2023-03-14T04:04:19;0.67;;;0.10;;
74487;SDS011;63019;51.080;13.642;2023-03-14T04:05:21;0.75;;;0.10;;
74487;SDS011;63019;51.080;13.642;2023-03-14T04:06:23;0.32;;;0.10;;
74487;SDS011;63019;51.080;13.642;2023-03-14T04:07:25;0.10;;;0.00;;
74487;SDS011;63019;51.080;13.642;2023-03-14T04:08:27;0.00;;;0.00;;
74487;SDS011;63019;51.080;13.642;2023-03-14T04:09:29;3.30;;;0.10;;
74487;SDS011;63019;51.080;13.642;2023-03-14T04:10:33;0.35;;;0.00;;
74487;SDS011;63019;51.080;13.642;2023-03-14T04:11:36;0.20;;;0.10;;
74487;SDS011;63019;51.080;13.642;2023-03-14T04:12:38;1.70;;;0.00;;
74487;SDS011;63019;51.080;13.642;2023-03-14T04:13:40;0.00;;;0.00;;
74487;SDS011;63019;51.080;13.642;2023-03-14T04:14:42;1.57;;;0.10;;
74487;SDS011;63019;51.080;13.642;2023-03-14T04:15:44;0.43;;;0.20;;
74487;SDS011;63019;51.080;13.642;2023-03-14T04:16:46;0.10;;;0.00;;
74487;SDS011;63019;51.080;13.642;2023-03-14T04:17:48;1.30;;;0.22;;
74487;SDS011;63019;51.080;13.642;2023-03-14T04:18:50;0.03;;;0.03;;
74487;SDS011;63019;51.080;13.642;2023-03-14T04:19:52;0.30;;;0.10;;
74487;SDS011;63019;51.080;13.642;2023-03-14T04:20:56;0.30;;;0.10;;
74487;SDS011;63019;51.080;13.642;2023-03-14T04:21:58;1.00;;;0.00;;
74487;SDS011;63019;51.080;13.642;2023-03-14T04:23:00;1.08;;;0.10;;
74487;SDS011;63019;51.080;13.642;2023-03-14T04:24:02;1.40;;;0.10;;
74487;SDS011;63019;51.080;13.642;2023-03-14T04:25:04;2.27;;;0.20;;
74487;SDS011;63019;51.080;13.642;2023-03-14T04:26:07;0.90;;;0.20;;
74487;SDS011;63019;51.080;13.642;2023-03-14T04:27:09;0.40;;;0.10;;
74487;SDS011;63019;51.080;13.642;2023-03-14T04:28:10;0.60;;;0.10;;
74487;SDS011;63019;51.080;13.642;2023-03-14T04:29:12;0.57;;;0.20;;
74487;SDS011;63019;51.080;13.642;2023-03-14T04:30:14;1.45;;;0.20;;
74487;SDS011;63019;51.080;13.642;2023-03-14T04:31:17;2.13;;;0.20;;
74487;SDS011;63019;51.080;13.642;2023-03-14T04:32:20;0.03;;;0.03;;
74487;SDS011;63019;51.080;13.642;2023-03-14T04:33:22;0.68;;;0.05;;
74487;SDS011;63019;51.080;13.642;2023-03-14T04:34:24;3.85;;;0.17;;
74487;SDS011;63019;51.080;13.642;2023-03-14T04:35:26;3.47;;;0.40;;
74487;SDS011;63019;51.080;13.642;2023-03-14T04:36:28;0.45;;;0.10;;
74487;SDS011;63019;51.080;13.642;2023-03-14T04:37:30;0.45;;;0.03;;
74487;SDS011;63019;51.080;13.642;2023-03-14T04:38:31;1.20;;;0.20;;
74487;SDS011;63019;51.080;13.642;2023-03-14T04:39:33;1.13;;;0.17;;
74487;SDS011;63019;51.080;13.642;2023-03-14T04:40:38;1.13;;;0.05;;
74487;SDS011;63019;51.080;13.642;2023-03-14T04:41:42;0.70;;;0.10;;
74487;SDS011;63019;51.080;13.642;2023-03-14T04:42:45;0.30;;;0.00;;
74487;SDS011;63019;51.080;13.642;2023-03-14T04:43:46;0.57;;;0.10;;
74487;SDS011;63019;51.080;13.642;2023-03-14T04:44:48;3.15;;;0.20;;
74487;SDS011;63019;51.080;13.642;2023-03-14T04:45:52;2.23;;;0.33;;
74487;SDS011;63019;51.080;13.642;2023-03-14T04:46:55;2.92;;;0.30;;
74487;SDS011;63019;51.080;13.642;2023-03-14T04:47:57;0.30;;;0.10;;
74487;SDS011;63019;51.080;13.642;2023-03-14T04:48:59;1.30;;;0.20;;
74487;SDS011;63019;51.080;13.642;2023-03-14T04:50:01;2.72;;;0.20;;
74487;SDS011;63019;51.080;13.642;2023-03-14T04:51:03;0.75;;;0.40;;
74487;SDS011;63019;51.080;13.642;2023-03-14T04:52:05;2.67;;;0.43;;
74487;SDS011;63019;51.080;13.642;2023-03-14T04:53:07;2.90;;;0.30;;
74487;SDS011;63019;51.080;13.642;2023-03-14T04:54:09;1.65;;;0.20;;
74487;SDS011;63019;51.080;13.642;2023-03-14T04:55:10;2.25;;;0.35;;
74487;SDS011;63019;51.080;13.642;2023-03-14T04:56:12;2.63;;;0.30;;
74487;SDS011;63019;51.080;13.642;2023-03-14T04:57:14;2.38;;;0.30;;
74487;SDS011;63019;51.080;13.642;2023-03-14T04:58:16;0.73;;;0.28;;
74487;SDS011;63019;51.080;13.642;2023-03-14T04:59:19;1.42;;;0.30;;
74487;SDS011;63019;51.080;13.642;2023-03-14T05:00:20;2.50;;;0.40;;
74487;SDS011;63019;51.080;13.642;2023-03-14T05:01:22;3.45;;;0.25;;
74487;SDS011;63019;51.080;13.642;2023-03-14T05:02:24;1.88;;;0.40;;
74487;SDS011;63019;51.080;13.642;2023-03-14T05:03:26;2.05;;;0.20;;
74487;SDS011;63019;51.080;13.642;2023-03-14T05:04:28;2.40;;;0.25;;
74487;SDS011;63019;51.080;13.642;2023-03-14T05:05:30;0.85;;;0.20;;
74487;SDS011;63019;51.080;13.642;2023-03-14T05:06:32;0.97;;;0.10;;
74487;SDS011;63019;51.080;13.642;2023-03-14T05:07:34;1.77;;;0.30;;
74487;SDS011;63019;51.080;13.642;2023-03-14T05:08:36;1.25;;;0.20;;
74487;SDS011;63019;51.080;13.642;2023-03-14T05:09:38;3.63;;;0.30;;
74487;SDS011;63019;51.080;13.642;2023-03-14T05:10:39;1.00;;;0.20;;
74487;SDS011;63019;51.080;13.642;2023-03-14T05:11:41;1.33;;;0.20;;
74487;SDS011;63019;51.080;13.642;2023-03-14T05:12:43;4.32;;;0.40;;
74487;SDS011;63019;51.080;13.642;2023-03-14T05:13:45;3.17;;;0.35;;
74487;SDS011;63019;51.080;13.642;2023-03-14T05:14:47;1.20;;;0.20;;
74487;SDS011;63019;51.080;13.642;2023-03-14T05:15:49;1.35;;;0.25;;
74487;SDS011;63019;51.080;13.642;2023-03-14T05:16:51;1.93;;;0.40;;
74487;SDS011;63019;51.080;13.642;2023-03-14T05:17:53;1.77;;;0.30;;
74487;SDS011;63019;51.080;13.642;2023-03-14T05:18:55;2.45;;;0.40;;
74487;SDS011;63019;51.080;13.642;2023-03-14T05:19:57;3.63;;;0.47;;
74487;SDS011;63019;51.080;13.642;2023-03-14T05:20:59;2.33;;;0.45;;
74487;SDS011;63019;51.080;13.642;2023-03-14T05:22:01;3.03;;;0.25;;
74487;SDS011;63019;51.080;13.642;2023-03-14T05:23:02;4.25;;;0.40;;
74487;SDS011;63019;51.080;13.642;2023-03-14T05:24:04;3.45;;;0.60;;
74487;SDS011;63019;51.080;13.642;2023-03-14T05:25:08;2.72;;;0.47;;
74487;SDS011;63019;51.080;13.642;2023-03-14T05:26:10;3.33;;;0.32;;
74487;SDS011;63019;51.080;13.642;2023-03-14T05:27:14;1.27;;;0.30;;
74487;SDS011;63019;51.080;13.642;2023-03-14T05:28:16;1.90;;;0.30;;
74487;SDS011;63019;51.080;13.642;2023-03-14T05:29:18;2.08;;;0.38;;
74487;SDS011;63019;51.080;13.642;2023-03-14T05:30:20;2.83;;;0.32;;
74487;SDS011;63019;51.080;13.642;2023-03-14T05:31:22;5.13;;;0.45;;
74487;SDS011;63019;51.080;13.642;2023-03-14T05:32:24;1.63;;;0.30;;
74487;SDS011;63019;51.080;13.642;2023-03-14T05:33:26;2.20;;;0.22;;
74487;SDS011;63019;51.080;13.642;2023-03-14T05:34:28;3.78;;;0.50;;
74487;SDS011;63019;51.080;13.642;2023-03-14T05:35:30;3.75;;;0.40;;
74487;SDS011;63019;51.080;13.642;2023-03-14T05:36:32;1.75;;;0.30;;
74487;SDS011;63019;51.080;13.642;2023-03-14T05:37:34;3.77;;;0.40;;
74487;SDS011;63019;51.080;13.642;2023-03-14T05:38:36;3.13;;;0.40;;
74487;SDS011;63019;51.080;13.642;2023-03-14T05:39:37;2.53;;;0.40;;
74487;SDS011;63019;51.080;13.642;2023-03-14T05:40:39;1.35;;;0.22;;
74487;SDS011;63019;51.080;13.642;2023-03-14T05:41:41;1.90;;;0.30;;
74487;SDS011;63019;51.080;13.642;2023-03-14T05:42:43;1.60;;;0.25;;
74487;SDS011;63019;51.080;13.642;2023-03-14T05:43:45;2.78;;;0.43;;
74487;SDS011;63019;51.080;13.642;2023-03-14T05:44:46;1.83;;;0.20;;
74487;SDS011;63019;51.080;13.642;2023-03-14T05:45:48;2.03;;;0.40;;
74487;SDS011;63019;51.080;13.642;2023-03-14T05:46:50;2.78;;;0.22;;
74487;SDS011;63019;51.080;13.642;2023-03-14T05:47:52;4.03;;;0.37;;
74487;SDS011;63019;51.080;13.642;2023-03-14T05:48:54;3.92;;;0.20;;
74487;SDS011;63019;51.080;13.642;2023-03-14T05:49:56;3.25;;;0.38;;
74487;SDS011;63019;51.080;13.642;2023-03-14T05:50:57;2.90;;;0.32;;
74487;SDS011;63019;51.080;13.642;2023-03-14T05:52:00;6.82;;;0.55;;
74487;SDS011;63019;51.080;13.642;2023-03-14T05:53:02;1.02;;;0.25;;
74487;SDS011;63019;51.080;13.642;2023-03-14T05:54:04;3.67;;;0.40;;
74487;SDS011;63019;51.080;13.642;2023-03-14T05:55:06;4.20;;;0.32;;
74487;SDS011;63019;51.080;13.642;2023-03-14T05:56:08;3.78;;;0.52;;
74487;SDS011;63019;51.080;13.642;2023-03-14T05:57:10;3.42;;;0.30;;
74487;SDS011;63019;51.080;13.642;2023-03-14T05:58:12;2.27;;;0.37;;
74487;SDS011;63019;51.080;13.642;2023-03-14T05:59:14;3.03;;;0.32;;
74487;SDS011;63019;51.080;13.642;2023-03-14T06:00:16;3.03;;;0.38;;
74487;SDS011;63019;51.080;13.642;2023-03-14T06:01:18;4.60;;;1.05;;
74487;SDS011;63019;51.080;13.642;2023-03-14T06:02:20;3.47;;;0.30;;
74487;SDS011;63019;51.080;13.642;2023-03-14T06:03:22;2.42;;;0.30;;
74487;SDS011;63019;51.080;13.642;2023-03-14T06:04:24;3.03;;;0.28;;
74487;SDS011;63019;51.080;13.642;2023-03-14T06:05:26;4.43;;;0.50;;
74487;SDS011;63019;51.080;13.642;2023-03-14T06:06:28;4.32;;;0.45;;
74487;SDS011;63019;51.080;13.642;2023-03-14T06:07:30;3.95;;;0.40;;
74487;SDS011;63019;51.080;13.642;2023-03-14T06:08:31;3.10;;;0.50;;
74487;SDS011;63019;51.080;13.642;2023-03-14T06:09:33;1.60;;;0.30;;
74487;SDS011;63019;51.080;13.642;2023-03-14T06:10:36;3.65;;;0.50;;
74487;SDS011;63019;51.080;13.642;2023-03-14T06:11:38;3.63;;;0.60;;
74487;SDS011;63019;51.080;13.642;2023-03-14T06:12:40;5.70;;;0.50;;
74487;SDS011;63019;51.080;13.642;2023-03-14T06:13:42;2.78;;;0.40;;
74487;SDS011;63019;51.080;13.642;2023-03-14T06:14:44;2.33;;;0.50;;
74487;SDS011;63019;51.080;13.642;2023-03-14T06:15:45;3.17;;;0.52;;
74487;SDS011;63019;51.080;13.642;2023-03-14T06:16:47;2.80;;;0.60;;
74487;SDS011;63019;51.080;13.642;2023-03-14T06:17:50;2.08;;;0.30;;
74487;SDS011;63019;51.080;13.642;2023-03-14T06:18:52;3.77;;;0.60;;
74487;SDS011;63019;51.080;13.642;2023-03-14T06:19:54;5.72;;;0.50;;
74487;SDS011;63019;51.080;13.642;2023-03-14T06:20:56;2.03;;;0.35;;
74487;SDS011;63019;51.080;13.642;2023-03-14T06:21:58;3.97;;;0.40;;
74487;SDS011;63019;51.080;13.642;2023-03-14T06:22:59;3.20;;;0.40;;